METAR Data
IDs: Format: Raw Decoded Include TAF

Data at: 0236 UTC 24 Sep 2018

KHRO 240224Z AUTO 12006KT 2 1/2SM BR OVC003 18/18 A3001 RMK AO2 T01780178
KHRO 240153Z AUTO 12006KT 4SM BR OVC004 18/18 A3000 RMK AO2 CIG 003V006 SLP151 T01780178
KHRO 240145Z AUTO 11004KT 3SM BR OVC004 18/18 A3000 RMK AO2 CIG 003V008 T01780178
KHRO 240053Z AUTO 12003KT 10SM OVC009 19/17 A2999 RMK AO2 SLP146 T01890172
KHRO 232353Z AUTO 09004KT 10SM OVC011 19/17 A2998 RMK AO2 SLP144 T01940172 10200 20183 56008
KHRO 232253Z AUTO 06004KT 10SM OVC011 19/17 A2999 RMK AO2 SLP145 T01940172
KHRO 232153Z AUTO 09006KT 10SM OVC011 20/17 A2999 RMK AO2 SLP148 T02000172
KHRO 232053Z AUTO 10004KT 10SM OVC011 19/17 A3001 RMK AO2 SLP152 T01940172 56020
KHRO 231953Z AUTO 11003KT 10SM OVC010 19/17 A3002 RMK AO2 SLP158 T01890172
KHRO 231910Z AUTO 07005KT 10SM OVC010 19/17 A3004 RMK AO2 T01940167
KHRO 231853Z AUTO 09006KT 10SM OVC009 19/17 A3005 RMK AO2 SLP167 T01940167
KHRO 231753Z AUTO 05005KT 10SM OVC006 18/17 A3007 RMK AO2 SLP173 T01830167 10183 20156 58004
KHRO 231653Z AUTO 06005KT 10SM OVC005 18/16 A3008 RMK AO2 SLP177 T01780161
KHRO 231640Z AUTO 07005KT 10SM OVC005 17/16 A3008 RMK AO2 T01720161
KHRO 231553Z AUTO 00000KT 10SM OVC004 17/16 A3008 RMK AO2 SLP180 T01670161
KHRO 231453Z AUTO 07004KT 10SM BKN004 OVC009 17/16 A3008 RMK AO2 CIG 002V006 SLP178 T01670161 53007
KHRO 231434Z AUTO 05006KT 3SM BR OVC002 16/16 A3007 RMK AO2 T01610161
KHRO 231353Z AUTO 05004KT 5SM BR OVC004 16/16 A3007 RMK AO2 SLP175 T01610156
KHRO 231305Z AUTO 07004KT 4SM BR OVC004 16/16 A3007 RMK AO2 T01560156
KHRO 231253Z AUTO 06005KT 2 1/2SM BR OVC003 16/16 A3006 RMK AO2 SLP173 T01560156
KHRO 231244Z AUTO 08005KT 2 1/2SM BR OVC003 16/16 A3007 RMK AO2 T01560156
KHRO 231153Z AUTO 05003KT 5SM BR OVC003 16/16 A3006 RMK AO2 SLP171 70034 T01560156 10161 20156 51003
KHRO 231053Z AUTO 12005KT 10SM OVC004 16/15 A3006 RMK AO2 SLP170 T01560150
KHRO 231049Z AUTO 11004KT 10SM OVC004 16/15 A3005 RMK AO2
KHRO 230953Z AUTO 08004KT 10SM OVC006 16/15 A3005 RMK AO2 SLP168 T01560150
KHRO 230908Z AUTO 06005KT 10SM OVC005 16/15 A3005 RMK AO2 T01560150
KHRO 230853Z AUTO 07004KT 10SM OVC004 16/16 A3005 RMK AO2 CIG 002V010 SLP170 T01560156 58006
KHRO 230823Z AUTO 06006KT 8SM OVC004 16/16 A3006 RMK AO2 T01560156
KHRO 230753Z AUTO 10006KT 10SM BKN005 OVC014 16/16 A3006 RMK AO2 CIG 004V011 SLP172 T01610156
KHRO 230717Z AUTO 12004KT 7SM OVC004 16/16 A3007 RMK AO2 T01610156
KHRO 230653Z AUTO 12003KT 10SM OVC005 16/16 A3007 RMK AO2 SLP174 T01610156
KHRO 230553Z AUTO 11006KT 10SM OVC007 16/16 A3007 RMK AO2 SLP175 T01610156 10167 20161 401670139 58012
KHRO 230453Z AUTO 10007KT 10SM OVC009 17/16 A3009 RMK AO2 CIG 006V012 SLP180 T01670156
KHRO 230353Z AUTO 07007KT 10SM OVC007 17/16 A3010 RMK AO2 SLP184 T01670156
KHRO 230253Z AUTO 10008KT 10SM OVC009 17/16 A3011 RMK AO2 SLP189 T01670156 53006
KHRO 230153Z AUTO 08005KT 10SM OVC008 17/16 A3010 RMK AO2 CIG 006V010 SLP185 T01670161
KHRO 230053Z AUTO 34003KT 10SM BKN006 OVC011 17/16 A3010 RMK AO2 CIG 006V010 SLP185 T01670161
KHRO 222353Z AUTO 07003KT 10SM OVC005 16/16 A3009 RMK AO2 CIG 004V009 SLP183 T01610156 10167 20156 58008
KHRO 222253Z AUTO 05005KT 10SM OVC005 16/16 A3011 RMK AO2 SLP189 T01610156
KHRO 222153Z AUTO 07006KT 10SM OVC006 16/15 A3011 RMK AO2 SLP189 T01610150
KHRO 222053Z AUTO 06005KT 10SM OVC005 16/15 A3012 RMK AO2 SLP192 T01610150 56020
KHRO 221953Z AUTO 08006KT 10SM OVC008 16/15 A3013 RMK AO2 CIG 005V011 SLP196 T01610150
KHRO 221853Z AUTO 07007KT 10SM OVC006 16/15 A3016 RMK AO2 SLP206 T01610150
KHRO 221753Z AUTO 07008KT 10SM OVC008 16/14 A3018 RMK AO2 CIG 006V013 SLP211 60034 T01560144 10156 20139 58006
KHRO 221653Z AUTO 06008KT 5SM BR OVC007 15/14 A3019 RMK AO2 RAE11 CIG 005V010 SLP217 P0000 T01500144
KHRO 221553Z AUTO 08006KT 3SM -RA BR BKN007 OVC014 15/14 A3021 RMK AO2 SLP222 P0002 T01500144
KHRO 221453Z AUTO 06007KT 7SM -RA OVC006 14/14 A3020 RMK AO2 CIG 005V010 SLP218 P0005 60032 T01440139 53002